Time;durP1;ratioP1;P1;durP2;ratioP2;P2;SDS_P1;SDS_P2;PMS_P1;PMS_P2;Temp;Humidity;BMP_temperature;BMP_pressure;BME280_temperature;BME280_humidity;BME280_pressure;Samples;Min_cycle;Max_cycle;Signal;HPM_P1;HPM_P2
2022/11/14 00:02:22;;;;;;;40.27;24.60;;;6.00;99.90;;;;;;5065779;28;20556;-65
2022/11/14 00:04:48;;;;;;;33.83;23.50;;;6.00;99.90;;;;;;5053137;28;20173;-64
2022/11/14 00:07:15;;;;;;;33.33;21.63;;;5.90;99.90;;;;;;5049545;28;20178;-65
2022/11/14 00:09:43;;;;;;;33.80;23.50;;;5.90;99.90;;;;;;5070892;28;20200;-66
2022/11/14 00:12:09;;;;;;;39.00;22.57;;;5.80;99.90;;;;;;5061267;28;20645;-65
2022/11/14 00:14:35;;;;;;;37.90;24.17;;;5.80;99.90;;;;;;5058536;28;20605;-65
2022/11/14 00:17:01;;;;;;;39.93;24.90;;;5.80;99.90;;;;;;5067193;28;20186;-64
2022/11/14 00:19:26;;;;;;;37.27;23.70;;;5.80;99.90;;;;;;5058369;28;20192;-65
2022/11/14 00:21:52;;;;;;;32.60;22.27;;;5.70;99.90;;;;;;5071029;28;20614;-65
2022/11/14 00:24:18;;;;;;;35.90;23.47;;;5.70;99.90;;;;;;5060494;28;20584;-65
2022/11/14 00:26:44;;;;;;;39.77;23.43;;;5.70;99.90;;;;;;5053175;28;20177;-65
2022/11/14 00:29:11;;;;;;;35.30;23.03;;;5.70;99.90;;;;;;5058258;28;20188;-65
2022/11/14 00:31:37;;;;;;;36.10;23.20;;;5.60;99.90;;;;;;5051273;28;20224;-65
2022/11/14 00:34:02;;;;;;;31.73;20.53;;;5.60;99.90;;;;;;5084630;28;20217;-67
2022/11/14 00:36:28;;;;;;;34.67;23.37;;;5.60;99.90;;;;;;5059927;28;20182;-66
2022/11/14 00:38:54;;;;;;;33.20;22.33;;;5.60;99.90;;;;;;5062023;28;20180;-66
2022/11/14 00:41:20;;;;;;;33.03;21.63;;;5.60;99.90;;;;;;5054711;28;20216;-64
2022/11/14 00:43:46;;;;;;;32.63;20.90;;;5.60;99.90;;;;;;5057590;28;20181;-64
2022/11/14 00:46:11;;;;;;;41.13;24.30;;;5.60;99.90;;;;;;5063794;28;20191;-65
2022/11/14 00:48:37;;;;;;;32.90;20.67;;;5.50;99.90;;;;;;5060001;28;20193;-65
2022/11/14 00:51:03;;;;;;;31.90;20.80;;;5.50;99.90;;;;;;5050156;28;20553;-65
2022/11/14 00:53:29;;;;;;;30.60;20.63;;;5.40;99.90;;;;;;5041230;28;20622;-65
2022/11/14 00:55:55;;;;;;;31.87;20.43;;;5.50;99.90;;;;;;5060291;28;20236;-65
2022/11/14 00:58:20;;;;;;;28.97;20.47;;;5.40;99.90;;;;;;5061308;28;20182;-64
2022/11/14 01:00:46;;;;;;;31.10;19.97;;;5.40;99.90;;;;;;5052652;28;20174;-64
2022/11/14 01:03:12;;;;;;;26.23;20.13;;;5.50;99.90;;;;;;5052311;28;20615;-64
2022/11/14 01:05:43;;;;;;;27.07;19.57;;;5.40;99.90;;;;;;5057886;28;20185;-66
2022/11/14 01:08:08;;;;;;;26.33;19.53;;;5.40;99.90;;;;;;5058788;28;20186;-65
2022/11/14 01:10:37;;;;;;;29.83;19.90;;;5.40;99.90;;;;;;5055973;28;20195;-65
2022/11/14 01:13:03;;;;;;;26.10;18.90;;;5.40;99.90;;;;;;5061092;28;20283;-66
2022/11/14 01:15:28;;;;;;;34.87;21.33;;;5.30;99.90;;;;;;5061726;28;20300;-66
2022/11/14 01:17:54;;;;;;;32.07;19.60;;;5.40;99.90;;;;;;5089292;28;20174;-66
2022/11/14 01:20:20;;;;;;;30.57;19.73;;;5.30;99.90;;;;;;5064547;28;20178;-65
2022/11/14 01:22:45;;;;;;;31.03;18.67;;;5.30;99.90;;;;;;5061749;28;20170;-66
2022/11/14 01:25:11;;;;;;;25.77;18.93;;;5.20;99.90;;;;;;5055744;28;20186;-67
2022/11/14 01:27:37;;;;;;;28.00;18.03;;;5.20;99.90;;;;;;5068594;28;20192;-67
2022/11/14 01:30:03;;;;;;;27.67;19.37;;;5.20;99.90;;;;;;5054889;28;20189;-65
2022/11/14 01:32:29;;;;;;;20.47;17.60;;;5.10;99.90;;;;;;5059372;28;20512;-65
2022/11/14 01:34:54;;;;;;;32.33;19.30;;;5.10;99.90;;;;;;5054600;28;20204;-65
2022/11/14 01:37:20;;;;;;;26.97;17.53;;;5.10;99.90;;;;;;5087741;28;20524;-66
2022/11/14 01:39:46;;;;;;;27.70;17.87;;;5.10;99.90;;;;;;5097376;28;20575;-65
2022/11/14 01:42:12;;;;;;;30.90;18.70;;;5.10;99.90;;;;;;5065827;28;20224;-65
2022/11/14 01:44:51;;;;;;;33.17;18.80;;;5.00;99.90;;;;;;5056134;28;20186;-65
2022/11/14 01:47:21;;;;;;;25.30;17.60;;;5.10;99.90;;;;;;5055879;28;20181;-65
2022/11/14 01:49:51;;;;;;;29.20;18.73;;;5.00;99.90;;;;;;5061212;28;20180;-65
2022/11/14 01:52:27;;;;;;;28.53;18.07;;;5.00;99.90;;;;;;5063337;28;20197;-64
2022/11/14 01:54:56;;;;;;;23.63;17.20;;;4.90;99.90;;;;;;5068030;28;20680;-65
2022/11/14 01:57:33;;;;;;;23.30;16.43;;;4.90;99.90;;;;;;5055743;28;20189;-65
2022/11/14 02:00:04;;;;;;;23.87;17.53;;;4.80;99.90;;;;;;5055375;28;20177;-65
2022/11/14 02:02:30;;;;;;;21.40;16.47;;;4.90;99.90;;;;;;5058741;28;20661;-65
2022/11/14 02:05:04;;;;;;;21.23;16.57;;;4.90;99.90;;;;;;5068717;28;20181;-65
2022/11/14 02:07:33;;;;;;;23.47;16.33;;;4.80;99.90;;;;;;5056096;28;20525;-65
2022/11/14 02:10:01;;;;;;;20.97;15.73;;;4.80;99.90;;;;;;5075107;28;20193;-65
2022/11/14 02:12:27;;;;;;;25.20;17.37;;;4.80;99.90;;;;;;5072266;28;20206;-65
2022/11/14 02:14:56;;;;;;;28.33;18.27;;;4.80;99.90;;;;;;5058742;28;20213;-65
2022/11/14 02:17:22;;;;;;;24.67;16.27;;;4.80;99.90;;;;;;5054617;28;20183;-65
2022/11/14 02:20:04;;;;;;;26.97;18.50;;;4.80;99.90;;;;;;5062432;28;20264;-65
2022/11/14 02:22:30;;;;;;;23.57;15.70;;;4.80;99.90;;;;;;5057819;28;20174;-65
2022/11/14 02:24:56;;;;;;;27.63;16.37;;;4.80;99.90;;;;;;5054542;28;20234;-65
2022/11/14 02:27:22;;;;;;;25.23;16.83;;;4.70;99.90;;;;;;5053396;28;20218;-65
2022/11/14 02:29:47;;;;;;;23.33;16.13;;;4.70;99.90;;;;;;5054367;28;20291;-65
2022/11/14 02:32:13;;;;;;;26.50;16.67;;;4.70;99.90;;;;;;5056742;28;20178;-65
2022/11/14 02:34:39;;;;;;;26.13;16.87;;;4.70;99.90;;;;;;5043945;28;20719;-65
2022/11/14 02:37:05;;;;;;;29.60;18.37;;;4.70;99.90;;;;;;5069264;28;20522;-65
2022/11/14 02:39:30;;;;;;;23.80;17.60;;;4.60;99.90;;;;;;5058837;28;20272;-65
2022/11/14 02:41:56;;;;;;;28.20;15.43;;;4.60;99.90;;;;;;5061886;28;20292;-65
2022/11/14 02:44:22;;;;;;;25.77;16.67;;;4.60;99.90;;;;;;5057579;28;20207;-65
2022/11/14 02:46:47;;;;;;;25.67;17.00;;;4.60;99.90;;;;;;5054150;28;20185;-64
2022/11/14 02:49:13;;;;;;;23.00;16.47;;;4.60;99.90;;;;;;5064236;28;20204;-64
2022/11/14 02:51:40;;;;;;;22.53;16.13;;;4.50;99.90;;;;;;5043987;28;20235;-64
2022/11/14 02:54:06;;;;;;;24.00;16.30;;;4.60;99.90;;;;;;5062503;28;20208;-64
2022/11/14 02:56:31;;;;;;;23.33;17.40;;;4.50;99.90;;;;;;5065431;28;20547;-64
2022/11/14 02:58:57;;;;;;;26.13;16.57;;;4.50;99.90;;;;;;5063867;28;20185;-64
2022/11/14 03:01:23;;;;;;;19.80;15.67;;;4.50;99.90;;;;;;5055484;28;20673;-64
2022/11/14 03:03:48;;;;;;;22.13;16.43;;;4.50;99.90;;;;;;5054723;28;20634;-64
2022/11/14 03:06:14;;;;;;;22.27;15.70;;;4.50;99.90;;;;;;5068234;28;20192;-64
2022/11/14 03:08:40;;;;;;;22.30;13.90;;;4.50;99.90;;;;;;5047274;28;20236;-64
2022/11/14 03:11:07;;;;;;;22.13;15.13;;;4.40;99.90;;;;;;5072603;28;20209;-64
2022/11/14 03:13:33;;;;;;;22.33;15.30;;;4.40;99.90;;;;;;5072731;28;20220;-64
2022/11/14 03:16:07;;;;;;;26.10;15.90;;;4.40;99.90;;;;;;5065664;28;20555;-64
2022/11/14 03:18:33;;;;;;;23.10;15.37;;;4.40;99.90;;;;;;5068884;28;20173;-64
2022/11/14 03:21:11;;;;;;;24.70;16.20;;;4.40;99.90;;;;;;5065545;28;20610;-64
2022/11/14 03:23:36;;;;;;;21.27;14.97;;;4.40;99.90;;;;;;5062933;28;20178;-64
2022/11/14 03:26:04;;;;;;;24.83;15.97;;;4.30;99.90;;;;;;5054638;28;20186;-65
2022/11/14 03:28:30;;;;;;;25.70;15.90;;;4.40;99.90;;;;;;5063753;28;20235;-63
2022/11/14 03:30:56;;;;;;;28.30;16.93;;;4.40;99.90;;;;;;5059552;28;20225;-65
2022/11/14 03:33:22;;;;;;;23.93;18.13;;;4.40;99.90;;;;;;5053776;28;20181;-64
2022/11/14 03:35:52;;;;;;;25.33;17.23;;;4.40;99.90;;;;;;5098372;28;20191;-64
2022/11/14 03:38:21;;;;;;;22.87;16.57;;;4.70;99.90;;;;;;5054276;28;20212;-63
2022/11/14 03:40:48;;;;;;;24.53;16.17;;;4.70;99.90;;;;;;5058171;28;20178;-65
2022/11/14 03:43:13;;;;;;;27.03;17.53;;;4.80;99.90;;;;;;5059890;28;20188;-65
2022/11/14 03:45:39;;;;;;;25.77;15.70;;;4.80;99.90;;;;;;5069832;28;20268;-65
2022/11/14 03:48:06;;;;;;;23.87;14.13;;;4.60;99.90;;;;;;5052998;28;20182;-65
2022/11/14 03:50:32;;;;;;;28.77;17.47;;;4.60;99.90;;;;;;5053309;28;20495;-65
2022/11/14 03:52:57;;;;;;;20.57;15.13;;;4.70;99.90;;;;;;5054318;28;20181;-65
2022/11/14 03:55:23;;;;;;;26.00;15.33;;;4.80;99.90;;;;;;5064105;28;20248;-65
2022/11/14 03:57:49;;;;;;;26.13;15.80;;;4.90;99.90;;;;;;5067320;28;20576;-65
2022/11/14 04:00:15;;;;;;;24.00;15.83;;;4.80;99.90;;;;;;5052148;28;20201;-65
2022/11/14 04:02:41;;;;;;;21.23;15.33;;;4.70;99.90;;;;;;5035451;28;20587;-65
2022/11/14 04:05:07;;;;;;;27.43;15.87;;;4.50;99.90;;;;;;5057278;28;20268;-65
2022/11/14 04:07:33;;;;;;;17.70;12.57;;;4.50;99.90;;;;;;5051695;28;20174;-65
2022/11/14 04:09:59;;;;;;;21.37;14.33;;;4.40;99.90;;;;;;5052919;28;20634;-68
2022/11/14 04:12:24;;;;;;;23.33;16.20;;;4.40;99.90;;;;;;5064723;28;20587;-64
2022/11/14 04:14:50;;;;;;;23.73;14.40;;;4.30;99.90;;;;;;5052914;28;20198;-65
2022/11/14 04:17:16;;;;;;;16.83;12.87;;;4.30;99.90;;;;;;5052835;28;20182;-65
2022/11/14 04:19:41;;;;;;;23.93;14.50;;;4.30;99.90;;;;;;5062945;28;20181;-65
2022/11/14 04:22:07;;;;;;;19.63;15.20;;;4.30;99.90;;;;;;5057365;28;20186;-65
2022/11/14 04:24:33;;;;;;;17.00;12.93;;;4.30;99.90;;;;;;5069102;28;20186;-64
2022/11/14 04:26:59;;;;;;;15.10;12.63;;;4.20;99.90;;;;;;5068459;28;20893;-65
2022/11/14 04:29:24;;;;;;;20.30;13.83;;;4.20;99.90;;;;;;5070032;28;20560;-65
2022/11/14 04:31:50;;;;;;;16.87;13.63;;;4.20;99.90;;;;;;5060429;28;20182;-65
2022/11/14 04:34:17;;;;;;;21.93;13.20;;;4.20;99.90;;;;;;5058462;28;20233;-65
2022/11/14 04:36:42;;;;;;;18.97;14.03;;;4.20;99.90;;;;;;5051431;28;20236;-65
2022/11/14 04:39:08;;;;;;;22.87;13.17;;;4.10;99.90;;;;;;5052429;28;20190;-65
2022/11/14 04:41:34;;;;;;;17.37;12.93;;;4.10;99.90;;;;;;5060255;28;20260;-65
2022/11/14 04:43:59;;;;;;;19.73;14.57;;;4.10;99.90;;;;;;5072192;28;20189;-65
2022/11/14 04:46:25;;;;;;;19.53;13.10;;;4.10;99.90;;;;;;5054622;28;20240;-64
2022/11/14 04:48:51;;;;;;;21.43;13.70;;;4.00;99.90;;;;;;5055591;28;20186;-64
2022/11/14 04:51:16;;;;;;;17.13;12.43;;;4.00;99.90;;;;;;5073799;28;20276;-64
2022/11/14 04:53:42;;;;;;;23.97;14.57;;;4.00;99.90;;;;;;5060335;28;20284;-64
2022/11/14 04:56:09;;;;;;;22.83;13.73;;;3.90;99.90;;;;;;5060388;28;20220;-64
2022/11/14 04:58:34;;;;;;;19.87;14.10;;;3.90;99.90;;;;;;5067239;28;20653;-64
2022/11/14 05:01:07;;;;;;;20.97;14.23;;;3.90;99.90;;;;;;5057080;28;20185;-64
2022/11/14 05:03:32;;;;;;;18.93;11.93;;;3.90;99.90;;;;;;5056552;28;20181;-64
2022/11/14 05:06:02;;;;;;;18.37;12.70;;;3.90;99.90;;;;;;5066991;28;20189;-64
2022/11/14 05:08:28;;;;;;;21.20;13.03;;;3.90;99.90;;;;;;5062895;28;20178;-64
2022/11/14 05:10:54;;;;;;;18.50;13.23;;;3.90;99.90;;;;;;5066196;28;20234;-64
2022/11/14 05:13:20;;;;;;;22.80;13.60;;;3.80;99.90;;;;;;5055274;28;20198;-64
2022/11/14 05:15:46;;;;;;;25.77;14.90;;;3.80;99.90;;;;;;5055227;28;20218;-65
2022/11/14 05:18:12;;;;;;;26.27;14.43;;;3.80;99.90;;;;;;5055970;28;20528;-64
2022/11/14 05:20:37;;;;;;;25.17;15.13;;;3.90;99.90;;;;;;5057874;28;20537;-65
2022/11/14 05:23:03;;;;;;;33.00;17.17;;;3.90;99.90;;;;;;5055850;28;20299;-64
2022/11/14 05:25:29;;;;;;;21.80;15.77;;;3.80;99.90;;;;;;5069020;28;20182;-65
2022/11/14 05:27:54;;;;;;;28.43;18.73;;;3.80;99.90;;;;;;5062489;28;20178;-64
2022/11/14 05:30:20;;;;;;;38.63;19.57;;;3.80;99.90;;;;;;5055489;28;20170;-67
2022/11/14 05:32:46;;;;;;;36.03;20.07;;;3.90;99.90;;;;;;5054150;28;20654;-65
2022/11/14 05:35:12;;;;;;;31.33;18.70;;;3.80;99.90;;;;;;5086645;28;20193;-64
2022/11/14 05:37:38;;;;;;;33.53;19.53;;;3.80;99.90;;;;;;5055887;28;20186;-65
2022/11/14 05:40:05;;;;;;;28.37;18.00;;;3.80;99.90;;;;;;5061823;28;20578;-65
2022/11/14 05:42:31;;;;;;;22.17;15.77;;;3.80;99.90;;;;;;5054355;28;20235;-64
2022/11/14 05:44:56;;;;;;;25.47;16.87;;;3.80;99.90;;;;;;5055631;28;20194;-65
2022/11/14 05:47:22;;;;;;;22.77;14.63;;;3.80;99.90;;;;;;5054452;28;20236;-64
2022/11/14 05:49:47;;;;;;;21.63;16.10;;;3.80;99.90;;;;;;5071812;28;20219;-65
2022/11/14 05:52:14;;;;;;;20.03;13.97;;;3.80;99.90;;;;;;5060964;28;20186;-66
2022/11/14 05:54:40;;;;;;;19.67;13.90;;;3.70;99.90;;;;;;5060359;28;20243;-65
2022/11/14 05:57:05;;;;;;;19.07;14.67;;;3.80;99.90;;;;;;5070177;28;20193;-64
2022/11/14 05:59:31;;;;;;;18.17;13.70;;;3.70;99.90;;;;;;5056184;28;20196;-65
2022/11/14 06:01:57;;;;;;;19.63;14.13;;;3.70;99.90;;;;;;5076506;28;20269;-64
2022/11/14 06:04:22;;;;;;;20.27;15.03;;;3.70;99.90;;;;;;5054138;28;20533;-62
2022/11/14 06:06:48;;;;;;;21.20;14.27;;;3.70;99.90;;;;;;5056774;28;20375;-64
2022/11/14 06:09:14;;;;;;;20.07;13.77;;;3.70;99.90;;;;;;5054062;28;20316;-63
2022/11/14 06:11:39;;;;;;;18.23;13.90;;;3.60;99.90;;;;;;5049001;28;20194;-64
2022/11/14 06:14:05;;;;;;;17.43;13.63;;;3.60;99.90;;;;;;5071068;28;20239;-63
2022/11/14 06:16:30;;;;;;;19.23;12.67;;;3.60;99.90;;;;;;5062359;28;20273;-64
2022/11/14 06:18:56;;;;;;;21.63;13.80;;;3.60;99.90;;;;;;5063224;28;20513;-64
2022/11/14 06:21:24;;;;;;;21.03;12.50;;;3.60;99.90;;;;;;5069342;28;20185;-64
2022/11/14 06:23:50;;;;;;;23.07;13.83;;;3.60;99.90;;;;;;5066943;28;20170;-64
2022/11/14 06:26:24;;;;;;;20.60;14.00;;;3.60;99.90;;;;;;5067558;28;20181;-64
2022/11/14 06:28:51;;;;;;;16.73;12.77;;;3.50;99.90;;;;;;5068219;28;20305;-64
2022/11/14 06:31:18;;;;;;;16.97;12.77;;;3.50;99.90;;;;;;5046259;28;20219;-63
2022/11/14 06:33:44;;;;;;;18.50;12.63;;;3.50;99.90;;;;;;5057248;28;20557;-64
2022/11/14 06:36:11;;;;;;;16.33;12.57;;;3.50;99.90;;;;;;5054293;28;20225;-64
2022/11/14 06:38:38;;;;;;;19.60;13.27;;;3.50;99.90;;;;;;5054800;28;20178;-64
2022/11/14 06:41:10;;;;;;;24.20;12.73;;;3.50;99.90;;;;;;5065344;28;20287;-64
2022/11/14 06:43:41;;;;;;;17.97;12.80;;;3.50;99.90;;;;;;5055617;28;20516;-65
2022/11/14 06:46:08;;;;;;;20.03;13.20;;;3.50;99.90;;;;;;5059731;28;20189;-65
2022/11/14 06:48:34;;;;;;;22.80;14.20;;;3.40;99.90;;;;;;5054013;28;20228;-65
2022/11/14 06:51:01;;;;;;;20.10;11.63;;;3.40;99.90;;;;;;5054820;28;20507;-64
2022/11/14 06:53:29;;;;;;;22.90;14.73;;;3.40;99.90;;;;;;5059644;28;20177;-65
2022/11/14 06:56:00;;;;;;;20.20;13.10;;;3.40;99.90;;;;;;5064679;28;20185;-65
2022/11/14 06:58:27;;;;;;;19.73;13.20;;;3.50;99.90;;;;;;5054014;28;20188;-65
2022/11/14 07:00:53;;;;;;;18.77;12.63;;;3.50;99.90;;;;;;5068143;28;20522;-65
2022/11/14 07:03:19;;;;;;;18.17;12.43;;;3.50;99.90;;;;;;5059166;28;20190;-65
2022/11/14 07:05:45;;;;;;;22.47;12.90;;;3.50;99.90;;;;;;5060734;28;20617;-65
2022/11/14 07:08:10;;;;;;;23.20;13.83;;;3.50;99.90;;;;;;5060574;28;20215;-63
2022/11/14 07:10:36;;;;;;;25.30;14.23;;;3.50;99.90;;;;;;5069990;28;20173;-64
2022/11/14 07:13:02;;;;;;;18.20;13.50;;;3.50;99.90;;;;;;5072368;28;20200;-64
2022/11/14 07:15:28;;;;;;;19.47;13.63;;;3.50;99.90;;;;;;5053854;28;20709;-65
2022/11/14 07:17:53;;;;;;;16.43;12.80;;;3.50;99.90;;;;;;5061802;28;20584;-64
2022/11/14 07:20:19;;;;;;;26.27;15.17;;;3.50;99.90;;;;;;5054348;28;20210;-65
2022/11/14 07:22:45;;;;;;;15.53;11.70;;;3.50;99.90;;;;;;5052921;28;20193;-64
2022/11/14 07:25:12;;;;;;;22.27;14.63;;;3.50;99.90;;;;;;5053036;28;20182;-64
2022/11/14 07:27:38;;;;;;;23.40;13.57;;;3.50;99.90;;;;;;5052452;28;20249;-64
2022/11/14 07:30:04;;;;;;;18.70;13.30;;;3.50;99.90;;;;;;5063848;28;20215;-64
2022/11/14 07:32:30;;;;;;;23.80;13.93;;;3.60;99.90;;;;;;5058435;28;20214;-66
2022/11/14 07:34:55;;;;;;;21.20;14.87;;;3.60;99.90;;;;;;5066327;28;20209;-65
2022/11/14 07:37:21;;;;;;;17.57;12.73;;;3.60;99.90;;;;;;5062045;28;20232;-65
2022/11/14 07:39:47;;;;;;;17.40;14.00;;;3.70;99.90;;;;;;5094815;28;20181;-64
2022/11/14 07:42:12;;;;;;;19.20;14.83;;;3.70;99.90;;;;;;5056626;28;20188;-65
2022/11/14 07:44:38;;;;;;;20.27;13.57;;;3.70;99.90;;;;;;5068810;28;20182;-64
2022/11/14 07:47:03;;;;;;;25.50;14.27;;;3.70;99.90;;;;;;5051767;28;20268;-64
2022/11/14 07:49:29;;;;;;;23.03;13.57;;;3.70;99.90;;;;;;5058192;28;20181;-64
2022/11/14 07:51:55;;;;;;;18.07;13.83;;;3.80;99.90;;;;;;5058081;28;20235;-64
2022/11/14 07:54:20;;;;;;;21.57;14.90;;;4.00;99.90;;;;;;5061802;28;20200;-65
2022/11/14 07:56:46;;;;;;;15.27;12.33;;;4.00;99.90;;;;;;5056505;28;20227;-65
2022/11/14 07:59:12;;;;;;;19.00;12.27;;;4.10;99.90;;;;;;5052101;28;20654;-64
2022/11/14 08:01:37;;;;;;;18.27;12.37;;;4.10;99.90;;;;;;5058254;28;20182;-64
2022/11/14 08:04:03;;;;;;;18.90;14.43;;;4.10;99.90;;;;;;5051874;28;20192;-65
2022/11/14 08:06:29;;;;;;;18.27;13.00;;;4.20;99.90;;;;;;5057180;28;20185;-66
2022/11/14 08:08:54;;;;;;;17.87;13.03;;;4.20;99.90;;;;;;5085262;28;20186;-65
2022/11/14 08:11:46;;;;;;;23.17;12.67;;;4.30;99.90;;;;;;5052976;28;20174;-65
2022/11/14 08:14:06;;;;;;;18.50;12.67;;;4.40;99.90;;;;;;5062706;28;20228;-65
2022/11/14 08:16:32;;;;;;;19.10;12.27;;;4.40;99.90;;;;;;5053240;28;20186;-66
2022/11/14 08:18:57;;;;;;;20.67;13.07;;;4.50;99.90;;;;;;5069857;28;20200;-65
2022/11/14 08:21:23;;;;;;;19.73;14.63;;;4.60;99.90;;;;;;5069800;28;20197;-64
2022/11/14 08:23:48;;;;;;;21.93;15.30;;;4.60;99.90;;;;;;5038202;28;20182;-65
2022/11/14 08:26:14;;;;;;;24.77;14.57;;;4.70;99.90;;;;;;5073341;28;20212;-65
2022/11/14 08:28:40;;;;;;;20.73;13.77;;;4.70;99.90;;;;;;5054611;28;20532;-64
2022/11/14 08:31:05;;;;;;;23.43;14.70;;;4.80;99.90;;;;;;5074607;28;20653;-65
2022/11/14 08:33:31;;;;;;;25.30;15.40;;;4.90;99.90;;;;;;5051561;28;20271;-65
2022/11/14 08:36:04;;;;;;;21.73;14.37;;;5.00;99.90;;;;;;5060253;28;20181;-66
2022/11/14 08:38:31;;;;;;;24.17;15.07;;;5.10;99.90;;;;;;5062207;28;20204;-65
2022/11/14 08:40:58;;;;;;;23.23;15.47;;;5.10;99.90;;;;;;5071380;28;20184;-67
2022/11/14 08:43:24;;;;;;;19.67;14.40;;;5.20;99.90;;;;;;5054664;28;20192;-65
2022/11/14 08:45:50;;;;;;;23.23;14.57;;;5.30;99.90;;;;;;5071390;28;20184;-65
2022/11/14 08:48:16;;;;;;;20.57;14.23;;;5.40;99.90;;;;;;5063587;28;20185;-66
2022/11/14 08:50:41;;;;;;;34.43;15.63;;;5.50;99.90;;;;;;5065117;28;20260;-66
2022/11/14 08:53:07;;;;;;;24.43;14.87;;;5.60;99.90;;;;;;5055445;28;20186;-66
2022/11/14 08:55:33;;;;;;;19.77;14.43;;;5.70;99.90;;;;;;5064999;28;20623;-64
2022/11/14 08:57:59;;;;;;;31.43;15.03;;;5.80;99.90;;;;;;5055255;28;20179;-66
2022/11/14 09:00:25;;;;;;;26.07;15.77;;;5.80;99.90;;;;;;5068215;28;20645;-65
2022/11/14 09:02:51;;;;;;;24.17;14.23;;;5.90;99.90;;;;;;5051170;28;20518;-65
2022/11/14 09:05:16;;;;;;;26.10;17.87;;;5.90;99.90;;;;;;5065989;28;20189;-65
2022/11/14 09:07:42;;;;;;;24.77;16.03;;;6.00;99.90;;;;;;5052416;28;20185;-64
2022/11/14 09:10:08;;;;;;;24.37;15.10;;;6.00;99.90;;;;;;5055753;28;20186;-65
2022/11/14 09:12:34;;;;;;;22.77;15.30;;;6.10;99.90;;;;;;5061549;28;20199;-65
2022/11/14 09:15:00;;;;;;;24.30;15.80;;;6.20;99.90;;;;;;5067070;28;20787;-65
2022/11/14 09:17:26;;;;;;;21.87;15.20;;;6.30;99.90;;;;;;5059697;28;20189;-65
2022/11/14 09:19:51;;;;;;;25.13;15.40;;;6.30;99.90;;;;;;5051090;28;20186;-66
2022/11/14 09:22:17;;;;;;;26.90;15.77;;;6.50;99.90;;;;;;5066053;28;20215;-64
2022/11/14 09:24:46;;;;;;;25.27;14.47;;;6.60;99.90;;;;;;5062813;28;20185;-65
2022/11/14 09:27:12;;;;;;;23.20;16.27;;;6.60;99.90;;;;;;5069986;28;20169;-65
2022/11/14 09:29:38;;;;;;;25.43;14.70;;;6.80;99.90;;;;;;5052808;28;20182;-65
2022/11/14 09:32:04;;;;;;;22.43;15.20;;;7.00;99.90;;;;;;5059668;28;20185;-65
2022/11/14 09:34:29;;;;;;;23.57;15.20;;;7.10;99.90;;;;;;5066669;28;20202;-67
2022/11/14 09:36:55;;;;;;;27.03;16.20;;;7.10;99.90;;;;;;5055979;28;20634;-66
2022/11/14 09:39:20;;;;;;;29.07;16.83;;;7.10;99.90;;;;;;5055254;28;20660;-65
2022/11/14 09:42:04;;;;;;;26.67;16.47;;;7.40;99.90;;;;;;5055844;28;20290;-64
2022/11/14 09:45:05;;;;;;;27.40;17.40;;;7.90;99.90;;;;;;5061850;28;20232;-64
2022/11/14 09:47:55;;;;;;;27.33;17.30;;;8.00;99.90;;;;;;5058867;28;20184;-65
2022/11/14 09:50:34;;;;;;;32.67;17.73;;;7.90;99.90;;;;;;5055453;28;20204;-65
2022/11/14 09:53:14;;;;;;;24.13;15.87;;;7.90;99.90;;;;;;5055432;28;20196;-66
2022/11/14 09:55:40;;;;;;;24.43;15.13;;;8.00;99.90;;;;;;5058678;28;20239;-64
2022/11/14 09:58:14;;;;;;;20.67;14.67;;;7.90;99.90;;;;;;5059557;28;20642;-65
2022/11/14 10:00:46;;;;;;;22.03;12.53;;;7.80;99.90;;;;;;5057554;28;20567;-65
2022/11/14 10:03:22;;;;;;;22.93;13.77;;;7.80;99.90;;;;;;5055438;28;20178;-64
2022/11/14 10:06:29;;;;;;;19.43;13.10;;;7.90;99.90;;;;;;5055018;28;20615;-64
2022/11/14 10:09:33;;;;;;;22.53;12.23;;;8.10;99.90;;;;;;5054691;28;20170;-65
2022/11/14 10:12:03;;;;;;;17.00;12.67;;;8.20;99.90;;;;;;5034048;28;20189;-64
2022/11/14 10:14:37;;;;;;;19.83;12.37;;;8.30;99.90;;;;;;5052411;28;20268;-65
2022/11/14 10:17:31;;;;;;;23.53;14.33;;;8.30;99.90;;;;;;5059945;28;20212;-65
2022/11/14 10:20:34;;;;;;;22.80;13.27;;;8.50;99.90;;;;;;5070856;28;20219;-66
2022/11/14 10:23:22;;;;;;;21.63;12.87;;;8.70;99.90;;;;;;5054880;28;20186;-65
2022/11/14 10:25:53;;;;;;;21.20;15.23;;;8.80;99.90;;;;;;5038129;28;20189;-65
2022/11/14 10:28:32;;;;;;;22.47;13.73;;;9.00;99.90;;;;;;5073258;28;20618;-65
2022/11/14 10:31:07;;;;;;;21.57;13.27;;;9.10;99.90;;;;;;5065679;28;20184;-66
2022/11/14 10:33:48;;;;;;;24.27;14.67;;;9.10;99.90;;;;;;5063876;28;20256;-66
2022/11/14 10:36:25;;;;;;;21.57;13.37;;;9.10;99.90;;;;;;5071027;28;20194;-64
2022/11/14 10:39:17;;;;;;;20.27;12.40;;;9.20;99.90;;;;;;5058867;28;20188;-66
2022/11/14 10:41:45;;;;;;;26.53;13.00;;;9.20;99.90;;;;;;5065775;28;20235;-65
2022/11/14 10:44:16;;;;;;;18.30;12.10;;;9.00;99.90;;;;;;5072821;28;20232;-65
2022/11/14 10:46:50;;;;;;;24.17;12.97;;;9.00;99.90;;;;;;5065532;28;20619;-65
2022/11/14 10:49:22;;;;;;;22.60;13.10;;;9.20;99.90;;;;;;5054439;28;20257;-65
2022/11/14 10:52:00;;;;;;;19.30;12.63;;;9.30;99.90;;;;;;5054701;28;20170;-63
2022/11/14 10:54:41;;;;;;;23.30;12.57;;;9.20;99.90;;;;;;5065688;28;20201;-64
2022/11/14 10:57:15;;;;;;;18.83;11.53;;;9.30;99.90;;;;;;5054260;28;20178;-64
2022/11/14 10:59:41;;;;;;;19.37;12.43;;;9.50;99.90;;;;;;5066775;28;20212;-64
2022/11/14 11:02:07;;;;;;;18.63;12.17;;;9.60;99.90;;;;;;5057914;28;20525;-65
2022/11/14 11:04:35;;;;;;;22.90;13.27;;;9.50;99.90;;;;;;5067056;28;20181;-65
2022/11/14 11:07:07;;;;;;;21.80;12.77;;;9.50;99.90;;;;;;5066822;28;20177;-66
2022/11/14 11:12:53;;;;;;;19.93;12.17;;;9.50;99.90;;;;;;5062314;28;20208;-65
2022/11/14 11:15:30;;;;;;;17.67;12.50;;;9.40;99.90;;;;;;5063175;28;20196;-65
2022/11/14 11:18:01;;;;;;;20.67;14.33;;;9.50;99.90;;;;;;5062201;28;20178;-66
2022/11/14 11:20:31;;;;;;;25.47;14.20;;;9.40;99.90;;;;;;5071217;28;20173;-65
2022/11/14 11:23:08;;;;;;;21.00;12.90;;;9.40;99.90;;;;;;5067225;28;20170;-66
2022/11/14 11:25:34;;;;;;;22.67;13.23;;;9.40;99.90;;;;;;5067219;28;20575;-67
2022/11/14 11:28:20;;;;;;;24.50;14.00;;;9.60;99.90;;;;;;5053691;28;20266;-65
2022/11/14 11:30:54;;;;;;;21.37;13.53;;;9.80;99.90;;;;;;5053434;28;20641;-66
2022/11/14 11:33:20;;;;;;;22.17;12.83;;;9.70;99.90;;;;;;5070557;28;20176;-66
2022/11/14 11:35:49;;;;;;;24.37;14.27;;;9.80;99.90;;;;;;5068013;28;20510;-66
2022/11/14 11:38:16;;;;;;;23.47;13.53;;;10.00;99.90;;;;;;5068225;28;20186;-65
2022/11/14 11:40:56;;;;;;;29.27;15.03;;;10.20;99.90;;;;;;5055162;28;20182;-65
2022/11/14 11:43:41;;;;;;;19.37;13.67;;;10.20;99.90;;;;;;5061749;28;20257;-66
2022/11/14 11:46:45;;;;;;;22.53;13.17;;;10.30;99.90;;;;;;5065316;28;20166;-64
2022/11/14 11:49:18;;;;;;;20.30;14.47;;;10.20;99.90;;;;;;5053059;28;20186;-65
2022/11/14 11:51:45;;;;;;;23.67;13.23;;;10.30;99.90;;;;;;5053369;28;20299;-65
2022/11/14 11:54:21;;;;;;;23.97;12.93;;;10.40;99.90;;;;;;5062136;28;20209;-65
2022/11/14 11:56:51;;;;;;;21.63;13.97;;;10.50;99.90;;;;;;5055758;28;20177;-65
2022/11/14 11:59:20;;;;;;;31.70;16.13;;;10.50;99.90;;;;;;5063124;28;20177;-65
2022/11/14 12:01:46;;;;;;;29.55;15.25;;;10.40;99.90;;;;;;5058967;28;20174;-65
2022/11/14 12:04:12;;;;;;;21.40;14.18;;;10.30;99.90;;;;;;5056490;28;20232;-64
2022/11/14 12:06:45;;;;;;;28.77;15.43;;;10.40;99.90;;;;;;5085404;28;20239;-64
2022/11/14 12:09:19;;;;;;;22.50;13.63;;;10.50;99.90;;;;;;5062330;28;20177;-64
2022/11/14 12:11:59;;;;;;;25.40;14.47;;;10.40;99.90;;;;;;5052694;28;20182;-64
2022/11/14 12:14:49;;;;;;;21.67;14.23;;;10.50;99.90;;;;;;5053089;28;20647;-64
2022/11/14 12:17:24;;;;;;;20.27;13.53;;;10.70;99.90;;;;;;5052421;28;20260;-64
2022/11/14 12:20:05;;;;;;;19.57;12.63;;;10.50;99.90;;;;;;5066566;28;20184;-65
2022/11/14 12:22:46;;;;;;;20.67;12.10;;;10.20;99.90;;;;;;5064119;28;20268;-64
2022/11/14 12:25:45;;;;;;;21.30;12.80;;;10.30;99.90;;;;;;5068214;28;20719;-65
2022/11/14 12:28:44;;;;;;;17.03;12.47;;;10.30;99.90;;;;;;5057117;28;20205;-64
2022/11/14 12:31:15;;;;;;;19.53;13.67;;;10.20;99.90;;;;;;5061358;28;20255;-64
2022/11/14 12:33:57;;;;;;;26.80;13.87;;;10.20;99.90;;;;;;5065200;28;20177;-64
2022/11/14 12:36:29;;;;;;;22.40;13.17;;;10.10;99.90;;;;;;5061699;28;20185;-64
2022/11/14 12:38:55;;;;;;;25.57;15.17;;;9.90;99.90;;;;;;5061843;28;20197;-65
2022/11/14 12:41:36;;;;;;;23.13;14.73;;;9.70;99.90;;;;;;5060821;28;20173;-64
2022/11/14 12:44:27;;;;;;;19.00;12.87;;;9.70;99.90;;;;;;5056259;28;20185;-65
2022/11/14 12:47:04;;;;;;;23.70;14.47;;;9.60;99.90;;;;;;5064522;28;20213;-64
2022/11/14 12:49:45;;;;;;;25.63;13.70;;;9.50;99.90;;;;;;5065109;28;20177;-65